Time;durP1;ratioP1;P1;durP2;ratioP2;P2;SDS_P1;SDS_P2;PMS_P1;PMS_P2;Temp;Humidity;BMP_temperature;BMP_pressure;BME280_temperature;BME280_humidity;BME280_pressure;Samples;Min_cycle;Max_cycle;Signal;HPM_P1;HPM_P2
2021/08/18 00:01:08;;;;;;;;;;;15.60;99.90;;;;;;5047065;28;20361;-89
2021/08/18 00:03:34;;;;;;;;;;;15.60;99.90;;;;;;5047523;28;19944;-89
2021/08/18 00:05:59;;;;;;;;;;;15.60;99.90;;;;;;5048762;28;20354;-88
2021/08/18 00:08:25;;;;;;;;;;;15.60;99.90;;;;;;5047459;28;20051;-89
2021/08/18 00:10:50;;;;;;;;;;;15.60;99.90;;;;;;5047194;28;19909;-88
2021/08/18 00:13:16;;;;;;;;;;;15.60;99.90;;;;;;5047828;28;19909;-88
2021/08/18 00:15:42;;;;;;;;;;;15.60;99.90;;;;;;5037814;28;19917;-89
2021/08/18 00:18:08;;;;;;;;;;;15.60;99.90;;;;;;5034086;28;19909;-88
2021/08/18 00:20:34;;;;;;;;;;;15.60;99.90;;;;;;5033722;28;19909;-89
2021/08/18 00:23:00;;;;;;;;;;;15.60;99.90;;;;;;5033988;28;20015;-88
2021/08/18 00:25:26;;;;;;;;;;;15.60;99.90;;;;;;5034170;28;20361;-88
2021/08/18 00:27:54;;;;;;;;;;;15.70;99.90;;;;;;5034072;28;19940;-89
2021/08/18 00:30:20;;;;;;;;;;;15.60;99.90;;;;;;5033748;28;19909;-88
2021/08/18 00:32:45;;;;;;;;;;;15.60;99.90;;;;;;5033420;28;20325;-88
2021/08/18 00:35:11;;;;;;;;;;;15.60;99.90;;;;;;5033878;28;19996;-88
2021/08/18 00:37:36;;;;;;;;;;;15.60;99.90;;;;;;5033617;28;20020;-89
2021/08/18 00:40:02;;;;;;;;;;;15.60;99.90;;;;;;5033095;28;19909;-88
2021/08/18 00:42:28;;;;;;;;;;;15.60;99.90;;;;;;5033700;28;19963;-89
2021/08/18 00:44:53;;;;;;;;;;;15.70;99.90;;;;;;5034822;28;19920;-89
2021/08/18 00:47:19;;;;;;;;;;;15.60;99.90;;;;;;5033772;28;20259;-88
2021/08/18 00:49:44;;;;;;;;;;;15.60;99.90;;;;;;5034929;28;20324;-88
2021/08/18 00:52:10;;;;;;;;;;;15.60;99.90;;;;;;5034571;28;19931;-88
2021/08/18 00:54:35;;;;;;;;;;;15.60;99.90;;;;;;5035293;28;19913;-89
2021/08/18 00:57:02;;;;;;;;;;;15.60;99.90;;;;;;5034592;28;19909;-88
2021/08/18 00:59:28;;;;;;;;;;;15.60;99.90;;;;;;5033966;28;19909;-88
2021/08/18 01:01:54;;;;;;;;;;;15.60;99.90;;;;;;5035265;28;19996;-89
2021/08/18 01:04:19;;;;;;;;;;;15.60;99.90;;;;;;5033156;28;20056;-88
2021/08/18 01:06:45;;;;;;;;;;;15.60;99.90;;;;;;5033063;28;20369;-89
2021/08/18 01:09:12;;;;;;;;;;;15.60;99.90;;;;;;5033405;28;19936;-88
2021/08/18 01:11:45;;;;;;;;;;;15.70;99.90;;;;;;5033355;28;19909;-89
2021/08/18 01:14:13;;;;;;;;;;;15.60;99.90;;;;;;5033413;28;19968;-88
2021/08/18 01:16:41;;;;;;;;;;;15.60;99.90;;;;;;5032989;28;19927;-89
2021/08/18 01:19:07;;;;;;;;;;;15.60;99.90;;;;;;5033281;28;19932;-88
2021/08/18 01:21:33;;;;;;;;;;;15.70;99.90;;;;;;5033264;28;19939;-88
2021/08/18 01:23:59;;;;;;;;;;;15.70;99.90;;;;;;5034189;28;20016;-88
2021/08/18 01:26:25;;;;;;;;;;;15.70;99.90;;;;;;5032142;28;19956;-88
2021/08/18 01:28:50;;;;;;;;;;;15.70;99.90;;;;;;5032780;28;20391;-88
2021/08/18 01:31:17;;;;;;;;;;;15.70;99.90;;;;;;5033018;28;19909;-89
2021/08/18 01:33:43;;;;;;;;;;;15.70;99.90;;;;;;5032874;28;20046;-89
2021/08/18 01:36:08;;;;;;;;;;;15.70;99.90;;;;;;5034025;28;20003;-88
2021/08/18 01:38:34;;;;;;;;;;;15.70;99.90;;;;;;5032732;28;20018;-88
2021/08/18 01:40:59;;;;;;;;;;;15.70;99.90;;;;;;5034069;28;20150;-88
2021/08/18 01:43:25;;;;;;;;;;;15.70;99.90;;;;;;5032696;28;20388;-89
2021/08/18 01:45:50;;;;;;;;;;;15.70;99.90;;;;;;5032604;28;19956;-88
2021/08/18 01:48:23;;;;;;;;;;;15.70;99.90;;;;;;5032631;28;19913;-89
2021/08/18 01:50:50;;;;;;;;;;;15.70;99.90;;;;;;5032577;28;20016;-88
2021/08/18 01:53:24;;;;;;;;;;;15.70;99.90;;;;;;5032539;28;19923;-88
2021/08/18 01:55:50;;;;;;;;;;;15.70;99.90;;;;;;5032235;28;19909;-89
2021/08/18 01:58:16;;;;;;;;;;;15.70;99.90;;;;;;5033651;28;20012;-88
2021/08/18 02:00:42;;;;;;;;;;;15.70;99.90;;;;;;5032370;28;20388;-88
2021/08/18 02:03:07;;;;;;;;;;;15.70;99.90;;;;;;5032360;28;19943;-88
2021/08/18 02:05:33;;;;;;;;;;;15.70;99.90;;;;;;5032317;28;19909;-88
2021/08/18 02:07:59;;;;;;;;;;;15.70;99.90;;;;;;5032391;28;19916;-89
2021/08/18 02:10:24;;;;;;;;;;;15.70;99.90;;;;;;5032133;28;20431;-88
2021/08/18 02:12:50;;;;;;;;;;;15.70;99.90;;;;;;5032121;28;19932;-88
2021/08/18 02:15:19;;;;;;;;;;;15.80;99.90;;;;;;5032023;28;20440;-89
2021/08/18 02:17:45;;;;;;;;;;;15.70;99.90;;;;;;5032138;28;19917;-89
2021/08/18 02:20:13;;;;;;;;;;;15.70;99.90;;;;;;5032258;28;19958;-88
2021/08/18 02:22:38;;;;;;;;;;;15.70;99.90;;;;;;5032702;28;19920;-88
2021/08/18 02:25:05;;;;;;;;;;;15.70;99.90;;;;;;5032436;28;19913;-89
2021/08/18 02:27:30;;;;;;;;;;;15.70;99.90;;;;;;5031931;28;19910;-88
2021/08/18 02:29:56;;;;;;;;;;;15.70;99.90;;;;;;5031788;28;19916;-90
2021/08/18 02:32:21;;;;;;;;;;;15.70;99.90;;;;;;5031710;28;19909;-89
2021/08/18 02:34:47;;;;;;;;;;;15.70;99.90;;;;;;5033404;28;19932;-89
2021/08/18 02:37:12;;;;;;;;;;;15.70;99.90;;;;;;5036409;28;20285;-89
2021/08/18 02:39:38;;;;;;;;;;;15.70;99.90;;;;;;5035487;28;19967;-89
2021/08/18 02:42:04;;;;;;;;;;;15.70;99.90;;;;;;5034077;28;19937;-89
2021/08/18 02:44:30;;;;;;;;;;;15.70;99.90;;;;;;5031366;28;19956;-90
2021/08/18 02:46:55;;;;;;;;;;;15.70;99.90;;;;;;5032604;28;19931;-89
2021/08/18 02:49:21;;;;;;;;;;;15.70;99.90;;;;;;5031001;28;20393;-89
2021/08/18 02:51:46;;;;;;;;;;;15.70;99.90;;;;;;5031361;28;19931;-89
2021/08/18 02:54:12;;;;;;;;;;;15.70;99.90;;;;;;5031164;28;19909;-89
2021/08/18 02:56:38;;;;;;;;;;;15.70;99.90;;;;;;5031248;28;19913;-89
2021/08/18 02:59:03;;;;;;;;;;;15.70;99.90;;;;;;5030951;28;20255;-88
2021/08/18 03:01:29;;;;;;;;;;;15.80;99.90;;;;;;5030523;28;20316;-89
2021/08/18 03:03:55;;;;;;;;;;;15.80;99.90;;;;;;5030326;28;19913;-89
2021/08/18 03:06:20;;;;;;;;;;;15.80;99.90;;;;;;5031119;28;19910;-88
2021/08/18 03:08:46;;;;;;;;;;;15.80;99.90;;;;;;5031016;28;19909;-90
2021/08/18 03:11:11;;;;;;;;;;;15.80;99.90;;;;;;5030752;28;20023;-89
2021/08/18 03:13:37;;;;;;;;;;;15.70;99.90;;;;;;5031185;28;19909;-88
2021/08/18 03:16:02;;;;;;;;;;;15.70;99.90;;;;;;5030918;28;20373;-89
2021/08/18 03:18:29;;;;;;;;;;;15.70;99.90;;;;;;5031107;28;19913;-89
2021/08/18 03:20:55;;;;;;;;;;;15.70;99.90;;;;;;5030850;28;19937;-89
2021/08/18 03:23:20;;;;;;;;;;;15.70;99.90;;;;;;5030719;28;20361;-89
2021/08/18 03:25:46;;;;;;;;;;;15.70;99.90;;;;;;5030975;28;19916;-89
2021/08/18 03:28:11;;;;;;;;;;;15.80;99.90;;;;;;5031164;28;19909;-89
2021/08/18 03:30:37;;;;;;;;;;;15.80;99.90;;;;;;5030503;28;19917;-89
2021/08/18 03:33:02;;;;;;;;;;;15.80;99.90;;;;;;5030890;28;19913;-89
2021/08/18 03:35:28;;;;;;;;;;;15.80;99.90;;;;;;5030867;28;19913;-89
2021/08/18 03:37:53;;;;;;;;;;;15.80;99.90;;;;;;5031474;28;20284;-89
2021/08/18 03:40:19;;;;;;;;;;;15.80;99.90;;;;;;5030436;28;19913;-89
2021/08/18 03:42:45;;;;;;;;;;;15.80;99.90;;;;;;5030906;28;20397;-89
2021/08/18 03:45:11;;;;;;;;;;;15.80;99.90;;;;;;5032120;28;19959;-89
2021/08/18 03:47:37;;;;;;;;;;;15.80;99.90;;;;;;5030819;28;19909;-89
2021/08/18 03:50:04;;;;;;;;;;;15.80;99.90;;;;;;5031047;28;19932;-89
2021/08/18 03:52:29;;;;;;;;;;;15.80;99.90;;;;;;5035549;28;20051;-89
2021/08/18 03:54:55;;;;;;;;;;;15.80;99.90;;;;;;5034565;28;19979;-89
2021/08/18 03:57:20;;;;;;;;;;;15.80;99.90;;;;;;5034361;28;19955;-88
2021/08/18 03:59:46;;;;;;;;;;;15.80;99.90;;;;;;5035378;28;19928;-89
2021/08/18 04:02:11;;;;;;;;;;;15.80;99.90;;;;;;5034404;28;20324;-89
2021/08/18 04:04:37;;;;;;;;;;;15.80;99.90;;;;;;5034651;28;19913;-90
2021/08/18 04:07:02;;;;;;;;;;;15.80;99.90;;;;;;5034224;28;19909;-89
2021/08/18 04:09:28;;;;;;;;;;;15.80;99.90;;;;;;5035427;28;19919;-89
2021/08/18 04:11:53;;;;;;;;;;;15.80;99.90;;;;;;5034175;28;19913;-89
2021/08/18 04:14:19;;;;;;;;;;;15.80;99.90;;;;;;5034098;28;19909;-89
2021/08/18 04:16:44;;;;;;;;;;;15.80;99.90;;;;;;5034586;28;19917;-89
2021/08/18 04:19:10;;;;;;;;;;;15.80;99.90;;;;;;5033566;28;19951;-89
2021/08/18 04:21:36;;;;;;;;;;;15.80;99.90;;;;;;5034962;28;19956;-90
2021/08/18 04:24:01;;;;;;;;;;;15.70;99.90;;;;;;5033856;28;20396;-90
2021/08/18 04:26:27;;;;;;;;;;;15.80;99.90;;;;;;5033840;28;19916;-89
2021/08/18 04:28:54;;;;;;;;;;;15.70;99.90;;;;;;5033833;28;19913;-89
2021/08/18 04:31:20;;;;;;;;;;;15.70;99.90;;;;;;5034711;28;20380;-90
2021/08/18 04:33:45;;;;;;;;;;;15.70;99.90;;;;;;5033747;28;19952;-89
2021/08/18 04:36:11;;;;;;;;;;;15.70;99.90;;;;;;5034420;28;20255;-89
2021/08/18 04:38:36;;;;;;;;;;;15.70;99.90;;;;;;5033877;28;19916;-89
2021/08/18 04:41:02;;;;;;;;;;;15.70;99.90;;;;;;5033629;28;19996;-88
2021/08/18 04:43:27;;;;;;;;;;;15.70;99.90;;;;;;5033612;28;19917;-88
2021/08/18 04:45:53;;;;;;;;;;;15.70;99.90;;;;;;5034217;28;19920;-89
2021/08/18 04:48:18;;;;;;;;;;;15.70;99.90;;;;;;5034981;28;19913;-88
2021/08/18 04:50:44;;;;;;;;;;;15.60;99.90;;;;;;5034365;28;19909;-88
2021/08/18 04:53:10;;;;;;;;;;;15.60;99.90;;;;;;5034969;28;19910;-89
2021/08/18 04:55:36;;;;;;;;;;;15.60;99.90;;;;;;5035466;28;19944;-88
2021/08/18 04:58:02;;;;;;;;;;;15.60;99.90;;;;;;5033395;28;19913;-88
2021/08/18 05:00:27;;;;;;;;;;;15.60;99.90;;;;;;5032971;28;19924;-88
2021/08/18 05:02:53;;;;;;;;;;;15.60;99.90;;;;;;5034216;28;19913;-89
2021/08/18 05:05:18;;;;;;;;;;;15.60;99.90;;;;;;5033116;28;19916;-88
2021/08/18 05:07:44;;;;;;;;;;;15.60;99.90;;;;;;5033162;28;19956;-89
2021/08/18 05:10:10;;;;;;;;;;;15.60;99.90;;;;;;5032968;28;19955;-89
2021/08/18 05:12:36;;;;;;;;;;;15.60;99.90;;;;;;5034264;28;20384;-88
2021/08/18 05:15:02;;;;;;;;;;;15.60;99.90;;;;;;5033120;28;19964;-88
2021/08/18 05:17:27;;;;;;;;;;;15.60;99.90;;;;;;5041413;22;19957;-85
2021/08/18 05:19:53;;;;;;;;;;;15.60;99.90;;;;;;5012930;28;19913;-85
2021/08/18 05:22:18;;;;;;;;;;;15.70;99.90;;;;;;5013594;28;19963;-85
2021/08/18 05:24:44;;;;;;;;;;;15.70;99.90;;;;;;5015127;28;19918;-85
2021/08/18 05:27:09;;;;;;;;;;;15.70;99.90;;;;;;5013599;28;19913;-85
2021/08/18 05:29:37;;;;;;;;;;;15.70;99.90;;;;;;5012808;28;19979;-86
2021/08/18 05:32:03;;;;;;;;;;;15.70;99.90;;;;;;5012982;28;20386;-86
2021/08/18 05:34:28;;;;;;;;;;;15.70;99.90;;;;;;5013443;28;19983;-85
2021/08/18 05:36:54;;;;;;;;;;;15.70;99.90;;;;;;5013199;28;19949;-86
2021/08/18 05:39:19;;;;;;;;;;;15.70;99.90;;;;;;5012794;28;19909;-86
2021/08/18 05:41:45;;;;;;;;;;;15.70;99.90;;;;;;5013328;28;19910;-85
2021/08/18 05:44:10;;;;;;;;;;;15.70;99.90;;;;;;5014368;28;19914;-86
2021/08/18 05:46:36;;;;;;;;;;;15.70;99.90;;;;;;5013011;28;19913;-86
2021/08/18 05:49:01;;;;;;;;;;;15.70;99.90;;;;;;5013671;28;20007;-85
2021/08/18 05:51:27;;;;;;;;;;;15.70;99.90;;;;;;5014362;28;19963;-86
2021/08/18 05:53:52;;;;;;;;;;;15.70;99.90;;;;;;5014272;28;19918;-86
2021/08/18 05:56:18;;;;;;;;;;;15.70;99.90;;;;;;5014265;28;19909;-85
2021/08/18 05:58:44;;;;;;;;;;;15.70;99.90;;;;;;5012966;28;19964;-86
2021/08/18 06:01:09;;;;;;;;;;;15.70;99.90;;;;;;5013489;28;19910;-86
2021/08/18 06:03:35;;;;;;;;;;;15.80;99.90;;;;;;5014118;28;19909;-85
2021/08/18 06:06:01;;;;;;;;;;;15.70;99.90;;;;;;5012865;28;19921;-85
2021/08/18 06:08:26;;;;;;;;;;;15.80;99.90;;;;;;5014119;28;19966;-85
2021/08/18 06:10:52;;;;;;;;;;;15.70;99.90;;;;;;5012398;28;19909;-85
2021/08/18 06:13:17;;;;;;;;;;;15.80;99.90;;;;;;5012354;28;20014;-86
2021/08/18 06:15:43;;;;;;;;;;;15.80;99.90;;;;;;5014007;28;19998;-85
2021/08/18 06:18:08;;;;;;;;;;;15.80;99.90;;;;;;5012656;28;19920;-86
2021/08/18 06:20:34;;;;;;;;;;;15.80;99.90;;;;;;5013213;28;20386;-85
2021/08/18 06:22:59;;;;;;;;;;;15.80;99.90;;;;;;5012479;28;19959;-86
2021/08/18 06:25:25;;;;;;;;;;;15.80;99.90;;;;;;5013702;28;19909;-86
2021/08/18 06:27:50;;;;;;;;;;;15.90;99.90;;;;;;5012554;28;19959;-86
2021/08/18 06:30:16;;;;;;;;;;;15.90;99.90;;;;;;5011866;28;20397;-86
2021/08/18 06:32:42;;;;;;;;;;;15.90;99.90;;;;;;5012362;28;19916;-86
2021/08/18 06:35:07;;;;;;;;;;;16.00;99.90;;;;;;5012376;28;19977;-86
2021/08/18 06:37:33;;;;;;;;;;;16.00;99.90;;;;;;5012235;28;19996;-85
2021/08/18 06:39:59;;;;;;;;;;;16.00;99.90;;;;;;5012864;28;19910;-88
2021/08/18 06:42:24;;;;;;;;;;;16.00;99.90;;;;;;5012458;28;20024;-86
2021/08/18 06:44:50;;;;;;;;;;;16.10;99.90;;;;;;5012301;28;19909;-87
2021/08/18 06:47:16;;;;;;;;;;;16.10;99.90;;;;;;5012174;28;19917;-85
2021/08/18 06:49:41;;;;;;;;;;;16.20;99.90;;;;;;5013030;28;19910;-88
2021/08/18 06:52:07;;;;;;;;;;;16.10;99.90;;;;;;5013710;28;19913;-85
2021/08/18 06:54:32;;;;;;;;;;;16.20;99.90;;;;;;5013918;28;20008;-88
2021/08/18 06:56:58;;;;;;;;;;;16.20;99.90;;;;;;5011894;28;20370;-86
2021/08/18 06:59:24;;;;;;;;;;;16.20;99.90;;;;;;5011960;28;20008;-86
2021/08/18 07:01:49;;;;;;;;;;;16.20;99.90;;;;;;5012175;28;19910;-86
2021/08/18 07:04:15;;;;;;;;;;;16.20;99.90;;;;;;5011798;28;19920;-86
2021/08/18 07:06:40;;;;;;;;;;;16.30;99.90;;;;;;5011511;28;19910;-86
2021/08/18 07:09:06;;;;;;;;;;;16.30;99.90;;;;;;5012393;28;19910;-85
2021/08/18 07:11:31;;;;;;;;;;;16.30;99.90;;;;;;5012866;28;20324;-86
2021/08/18 07:13:59;;;;;;;;;;;16.30;99.90;;;;;;5011727;28;19914;-86
2021/08/18 07:16:25;;;;;;;;;;;16.30;99.90;;;;;;5012927;28;20075;-86
2021/08/18 07:18:51;;;;;;;;;;;16.30;99.90;;;;;;5011306;28;19916;-86
2021/08/18 07:21:20;;;;;;;;;;;16.30;99.90;;;;;;5011298;28;19910;-85
2021/08/18 07:23:46;;;;;;;;;;;16.40;99.90;;;;;;5011686;28;19913;-86
2021/08/18 07:26:11;;;;;;;;;;;16.40;99.90;;;;;;5014156;28;19910;-86
2021/08/18 07:28:37;;;;;;;;;;;16.40;99.90;;;;;;5015473;28;19917;-86
2021/08/18 07:31:02;;;;;;;;;;;16.40;99.90;;;;;;5014797;28;19969;-86
2021/08/18 07:33:28;;;;;;;;;;;16.40;99.90;;;;;;5015550;28;20374;-87
2021/08/18 07:35:53;;;;;;;;;;;16.50;99.90;;;;;;5015099;28;20366;-88
2021/08/18 07:38:19;;;;;;;;;;;16.50;99.90;;;;;;5016528;28;20441;-86
2021/08/18 07:40:45;;;;;;;;;;;16.50;99.90;;;;;;5014550;28;19913;-88
2021/08/18 07:43:10;;;;;;;;;;;16.50;99.90;;;;;;5014943;28;19909;-88
2021/08/18 07:45:36;;;;;;;;;;;16.50;99.90;;;;;;5016330;28;19937;-88
2021/08/18 07:48:01;;;;;;;;;;;16.50;99.90;;;;;;5014936;28;20366;-88
2021/08/18 07:50:27;;;;;;;;;;;16.60;99.90;;;;;;5014237;28;20012;-88
2021/08/18 07:52:52;;;;;;;;;;;16.60;99.90;;;;;;5016164;28;19914;-89
2021/08/18 07:55:18;;;;;;;;;;;16.70;99.90;;;;;;5014999;28;19914;-88
2021/08/18 07:57:43;;;;;;;;;;;16.70;99.90;;;;;;5015166;28;20327;-88
2021/08/18 08:00:09;;;;;;;;;;;16.70;99.90;;;;;;5014525;28;19913;-88
2021/08/18 08:02:34;;;;;;;;;;;16.70;99.90;;;;;;5014848;28;19913;-88
2021/08/18 08:05:04;;;;;;;;;;;16.80;99.90;;;;;;5015238;28;19909;-88
2021/08/18 08:07:29;;;;;;;;;;;16.90;99.90;;;;;;5014714;28;19909;-88
2021/08/18 08:09:55;;;;;;;;;;;16.90;99.90;;;;;;5014063;28;19963;-88
2021/08/18 08:12:20;;;;;;;;;;;16.90;99.90;;;;;;5014537;28;20310;-88
2021/08/18 08:14:45;;;;;;;;;;;16.90;99.90;;;;;;5014483;28;19921;-88
2021/08/18 08:17:11;;;;;;;;;;;17.00;99.90;;;;;;5015529;28;20321;-88
2021/08/18 08:19:36;;;;;;;;;;;17.00;99.90;;;;;;5014048;28;19964;-88
2021/08/18 08:22:02;;;;;;;;;;;17.10;99.90;;;;;;5015674;28;19948;-88
2021/08/18 08:24:27;;;;;;;;;;;17.10;99.90;;;;;;5014414;28;20362;-88
2021/08/18 08:26:53;;;;;;;;;;;17.10;99.90;;;;;;5015811;28;19917;-88
2021/08/18 08:29:18;;;;;;;;;;;17.20;99.90;;;;;;5013831;28;19909;-88
2021/08/18 08:31:44;;;;;;;;;;;17.20;99.90;;;;;;5014339;28;19975;-88
2021/08/18 08:34:10;;;;;;;;;;;17.30;99.90;;;;;;5014234;28;19914;-88
2021/08/18 08:36:36;;;;;;;;;;;17.30;99.90;;;;;;5014945;28;19910;-88
2021/08/18 08:39:02;;;;;;;;;;;17.30;99.90;;;;;;5013634;28;19940;-88
2021/08/18 08:41:28;;;;;;;;;;;17.40;99.90;;;;;;5014116;28;19937;-88
2021/08/18 08:43:53;;;;;;;;;;;17.40;99.90;;;;;;5015483;28;19910;-88
2021/08/18 08:46:19;;;;;;;;;;;17.40;99.90;;;;;;5014263;28;19921;-88
2021/08/18 08:48:44;;;;;;;;;;;17.50;99.90;;;;;;5015973;28;19984;-88
2021/08/18 08:51:10;;;;;;;;;;;17.50;99.90;;;;;;5015104;28;19948;-88
2021/08/18 08:53:36;;;;;;;;;;;17.40;99.90;;;;;;5015369;28;19913;-88
2021/08/18 08:56:02;;;;;;;;;;;17.40;99.90;;;;;;5015213;28;19951;-88
2021/08/18 08:58:27;;;;;;;;;;;17.30;99.90;;;;;;5014074;28;19996;-88
2021/08/18 09:00:53;;;;;;;;;;;17.30;99.90;;;;;;5013008;28;19913;-88
2021/08/18 09:03:23;;;;;;;;;;;17.30;99.90;;;;;;5013626;28;20003;-88
2021/08/18 09:05:49;;;;;;;;;;;17.30;99.90;;;;;;5015026;28;19920;-88
2021/08/18 09:08:16;;;;;;;;;;;17.30;99.90;;;;;;5013721;28;19968;-88
2021/08/18 09:11:01;;;;;;;;;;;17.30;99.90;;;;;;5012875;28;19909;-88
2021/08/18 09:13:36;;;;;;;;;;;17.30;99.90;;;;;;5013498;28;20012;-88
2021/08/18 09:16:03;;;;;;;;;;;17.30;99.90;;;;;;5013130;28;19917;-88
2021/08/18 09:18:41;;;;;;;;;;;17.30;99.90;;;;;;5013292;28;19909;-88
2021/08/18 09:21:25;;;;;;;;;;;17.40;99.90;;;;;;5014069;28;19910;-88
2021/08/18 09:23:50;;;;;;;;;;;17.30;99.90;;;;;;5013342;28;19916;-88
2021/08/18 09:26:20;;;;;;;;;;;17.30;99.90;;;;;;5014394;28;20324;-88
2021/08/18 09:28:45;;;;;;;;;;;17.30;99.90;;;;;;5013026;28;19921;-88
2021/08/18 09:31:22;;;;;;;;;;;17.30;99.90;;;;;;5012400;28;19909;-88
2021/08/18 09:33:53;;;;;;;;;;;17.30;99.90;;;;;;5012861;28;20387;-88
2021/08/18 09:36:23;;;;;;;;;;;17.30;99.90;;;;;;5014231;28;19913;-88
2021/08/18 09:38:49;;;;;;;;;;;17.30;99.90;;;;;;5012877;28;20373;-88
2021/08/18 09:41:16;;;;;;;;;;;17.30;99.90;;;;;;5012619;28;20008;-88
2021/08/18 09:43:41;;;;;;;;;;;17.20;99.90;;;;;;5014245;28;20267;-88
2021/08/18 09:46:07;;;;;;;;;;;17.30;99.90;;;;;;5012750;28;19921;-88
2021/08/18 09:48:34;;;;;;;;;;;17.20;99.90;;;;;;5013186;28;19909;-88
2021/08/18 09:51:09;;;;;;;;;;;17.20;99.90;;;;;;5012038;28;19916;-87
2021/08/18 09:53:36;;;;;;;;;;;17.30;99.90;;;;;;5012636;28;19917;-88
2021/08/18 09:56:05;;;;;;;;;;;17.30;99.90;;;;;;5012534;28;19917;-88
2021/08/18 09:58:32;;;;;;;;;;;17.30;99.90;;;;;;5013752;28;19909;-88
2021/08/18 10:00:59;;;;;;;;;;;17.30;99.90;;;;;;5012092;28;19910;-88
2021/08/18 10:03:25;;;;;;;;;;;17.40;99.90;;;;;;5013601;28;19972;-88
2021/08/18 10:05:50;;;;;;;;;;;17.40;99.90;;;;;;5012284;28;19909;-88
2021/08/18 10:08:19;;;;;;;;;;;17.40;99.90;;;;;;5012274;28;19972;-88
2021/08/18 10:10:46;;;;;;;;;;;17.40;99.90;;;;;;5012520;28;19913;-88
2021/08/18 10:13:12;;;;;;;;;;;17.40;99.90;;;;;;5011972;28;19936;-88
2021/08/18 10:15:38;;;;;;;;;;;17.40;99.90;;;;;;5011965;28;19913;-88
2021/08/18 10:18:05;;;;;;;;;;;17.40;99.90;;;;;;5013321;28;19948;-88
2021/08/18 10:20:31;;;;;;;;;;;17.40;99.90;;;;;;5012798;28;19910;-88
2021/08/18 10:23:00;;;;;;;;;;;17.50;99.90;;;;;;5013350;28;19955;-89
2021/08/18 10:25:37;;;;;;;;;;;17.50;99.90;;;;;;5011973;28;19909;-88
2021/08/18 10:28:03;;;;;;;;;;;17.60;99.90;;;;;;5012203;28;19909;-88
2021/08/18 10:30:29;;;;;;;;;;;17.60;99.90;;;;;;5012621;28;19913;-88
2021/08/18 10:32:55;;;;;;;;;;;17.70;99.90;;;;;;5011594;28;19983;-88
2021/08/18 10:35:35;;;;;;;;;;;17.70;99.90;;;;;;5012199;28;19913;-88
2021/08/18 10:38:19;;;;;;;;;;;17.70;99.90;;;;;;5013115;28;19909;-88
2021/08/18 10:40:45;;;;;;;;;;;17.80;99.90;;;;;;5012121;28;19913;-88
2021/08/18 10:43:30;;;;;;;;;;;17.80;99.90;;;;;;5013631;28;19910;-87
2021/08/18 10:45:56;;;;;;;;;;;17.80;99.90;;;;;;5012874;28;19917;-87
2021/08/18 10:48:41;;;;;;;;;;;17.80;99.90;;;;;;5012061;28;19909;-88
2021/08/18 10:51:07;;;;;;;;;;;17.80;99.90;;;;;;5010825;28;20012;-88
2021/08/18 10:53:33;;;;;;;;;;;17.80;99.90;;;;;;5012801;28;20012;-88
2021/08/18 10:55:58;;;;;;;;;;;17.80;99.90;;;;;;5011947;28;19917;-88
2021/08/18 10:58:28;;;;;;;;;;;17.80;99.90;;;;;;5011447;28;19917;-88
2021/08/18 11:00:53;;;;;;;;;;;17.90;99.90;;;;;;5010853;28;19914;-88
2021/08/18 11:03:22;;;;;;;;;;;17.90;99.90;;;;;;5012679;28;20394;-88
2021/08/18 11:05:52;;;;;;;;;;;17.90;99.90;;;;;;5012739;28;19909;-88
2021/08/18 11:08:17;;;;;;;;;;;18.00;99.90;;;;;;5011485;28;19949;-87
2021/08/18 11:10:43;;;;;;;;;;;18.00;99.90;;;;;;5011059;28;19955;-88
2021/08/18 11:13:11;;;;;;;;;;;18.10;99.90;;;;;;5011119;28;19910;-88
2021/08/18 11:15:43;;;;;;;;;;;18.10;99.90;;;;;;5012582;28;19916;-88
2021/08/18 11:18:09;;;;;;;;;;;18.10;99.90;;;;;;5034386;23;19991;-88
2021/08/18 11:20:35;;;;;;;;;;;18.10;99.90;;;;;;5012287;28;19909;-88
2021/08/18 11:23:02;;;;;;;;;;;18.20;99.90;;;;;;5011628;28;20369;-88
2021/08/18 11:25:28;;;;;;;;;;;18.20;99.90;;;;;;5011348;28;19910;-88
2021/08/18 11:27:55;;;;;;;;;;;18.20;99.90;;;;;;5011359;28;19917;-88
2021/08/18 11:30:27;;;;;;;;;;;18.20;99.90;;;;;;5011049;28;19936;-88
2021/08/18 11:32:53;;;;;;;;;;;18.20;99.90;;;;;;5011080;28;19917;-88
2021/08/18 11:35:34;;;;;;;;;;;18.20;99.90;;;;;;5011281;28;20008;-88
2021/08/18 11:38:07;;;;;;;;;;;18.10;99.90;;;;;;5013948;28;19947;-88
2021/08/18 11:40:33;;;;;;;;;;;18.20;99.90;;;;;;5013266;28;19914;-88
2021/08/18 11:42:59;;;;;;;;;;;18.20;99.90;;;;;;5013480;28;19917;-88
2021/08/18 11:45:25;;;;;;;;;;;18.20;99.90;;;;;;5011666;28;19910;-88
2021/08/18 11:47:51;;;;;;;;;;;18.20;99.90;;;;;;5011541;28;19916;-88
2021/08/18 11:50:17;;;;;;;;;;;18.20;99.90;;;;;;5012262;28;19910;-88
2021/08/18 11:52:43;;;;;;;;;;;18.20;99.90;;;;;;5011514;28;19910;-88
2021/08/18 11:55:09;;;;;;;;;;;18.20;99.90;;;;;;5011300;28;20346;-88
2021/08/18 11:57:34;;;;;;;;;;;18.20;99.90;;;;;;5011219;28;19910;-88
2021/08/18 12:00:01;;;;;;;;;;;18.20;99.90;;;;;;5011337;28;19913;-88
2021/08/18 12:02:27;;;;;;;;;;;18.20;99.90;;;;;;5012309;28;19936;-88
2021/08/18 12:05:11;;;;;;;;;;;18.20;99.90;;;;;;5011272;28;20027;-89
2021/08/18 12:07:37;;;;;;;;;;;18.20;99.90;;;;;;5011091;28;19956;-89
2021/08/18 12:10:23;;;;;;;;;;;18.20;99.90;;;;;;5010599;28;19910;-89
2021/08/18 12:13:05;;;;;;;;;;;18.20;99.90;;;;;;5015412;28;19910;-88
2021/08/18 12:15:32;;;;;;;;;;;18.20;99.90;;;;;;5014391;28;19914;-88
2021/08/18 12:17:57;;;;;;;;;;;18.20;99.90;;;;;;5014401;28;19924;-89
2021/08/18 12:20:29;;;;;;;;;;;18.20;99.90;;;;;;5014264;28;19910;-89
2021/08/18 12:22:55;;;;;;;;;;;18.30;99.90;;;;;;5014310;28;19909;-89
2021/08/18 12:25:26;;;;;;;;;;;18.30;99.90;;;;;;5015451;28;19913;-88
2021/08/18 12:28:09;;;;;;;;;;;18.40;99.90;;;;;;5017087;28;19909;-88
2021/08/18 12:30:53;;;;;;;;;;;18.50;99.90;;;;;;5016455;28;19909;-89
2021/08/18 12:33:18;;;;;;;;;;;18.50;99.90;;;;;;5015683;28;19913;-88
2021/08/18 12:35:44;;;;;;;;;;;18.60;99.90;;;;;;5015585;28;20063;-88
2021/08/18 12:38:09;;;;;;;;;;;18.60;99.90;;;;;;5015626;28;20417;-88
2021/08/18 12:40:35;;;;;;;;;;;18.70;99.90;;;;;;5014942;28;20051;-88
2021/08/18 12:43:02;;;;;;;;;;;18.70;99.90;;;;;;5015585;28;19910;-88
2021/08/18 12:45:28;;;;;;;;;;;18.70;99.90;;;;;;5016631;28;19925;-88
2021/08/18 12:47:59;;;;;;;;;;;18.80;99.90;;;;;;5015509;28;19924;-88
2021/08/18 12:50:26;;;;;;;;;;;18.80;99.90;;;;;;5015315;28;19996;-88
2021/08/18 12:52:52;;;;;;;;;;;18.90;99.90;;;;;;5015839;28;19948;-88
2021/08/18 12:55:18;;;;;;;;;;;18.80;99.90;;;;;;5015109;28;19956;-88
2021/08/18 12:57:43;;;;;;;;;;;18.90;99.90;;;;;;5015126;28;19952;-88
2021/08/18 13:00:09;;;;;;;;;;;18.90;99.90;;;;;;5016089;28;19913;-88
2021/08/18 13:02:35;;;;;;;;;;;18.90;99.90;;;;;;5031541;28;19968;-88
2021/08/18 13:05:00;;;;;;;;;;;19.00;99.90;;;;;;5016282;28;19972;-89
2021/08/18 13:07:25;;;;;;;;;;;18.90;99.90;;;;;;5015089;28;19909;-89
2021/08/18 13:09:51;;;;;;;;;;;18.90;99.90;;;;;;5014582;28;20016;-88
2021/08/18 13:12:18;;;;;;;;;;;18.90;99.90;;;;;;5015447;28;19909;-88
2021/08/18 13:14:44;;;;;;;;;;;18.90;99.90;;;;;;5015091;28;19956;-88
2021/08/18 13:17:09;;;;;;;;;;;18.90;99.90;;;;;;5015048;28;20389;-88
2021/08/18 13:19:35;;;;;;;;;;;18.90;99.90;;;;;;5014585;28;19909;-88
2021/08/18 13:22:00;;;;;;;;;;;18.90;99.90;;;;;;5014709;28;19910;-89
2021/08/18 13:24:26;;;;;;;;;;;18.90;99.90;;;;;;5015011;28;20012;-89
2021/08/18 13:26:53;;;;;;;;;;;19.00;99.90;;;;;;5015057;28;19910;-88
2021/08/18 13:29:19;;;;;;;;;;;19.00;99.90;;;;;;5014105;28;19910;-88
2021/08/18 13:31:44;;;;;;;;;;;19.00;99.90;;;;;;5016020;28;19909;-89
2021/08/18 13:34:10;;;;;;;;;;;19.00;99.90;;;;;;5016462;28;19961;-88
2021/08/18 13:36:36;;;;;;;;;;;19.00;99.90;;;;;;5014765;28;20352;-88
2021/08/18 13:39:02;;;;;;;;;;;19.00;99.90;;;;;;5014190;28;19910;-88
2021/08/18 13:41:28;;;;;;;;;;;18.90;99.90;;;;;;5015461;28;20000;-88
2021/08/18 13:43:54;;;;;;;;;;;18.80;99.90;;;;;;5014411;28;19997;-87
2021/08/18 13:46:19;;;;;;;;;;;18.70;99.90;;;;;;5014332;28;20373;-89
2021/08/18 13:48:45;;;;;;;;;;;18.70;99.90;;;;;;5014525;28;19992;-89
2021/08/18 13:51:11;;;;;;;;;;;18.70;99.90;;;;;;5014136;28;20016;-88
2021/08/18 13:53:36;;;;;;;;;;;18.60;99.90;;;;;;5014828;28;19913;-88
2021/08/18 13:56:03;;;;;;;;;;;18.50;99.90;;;;;;5014723;28;20404;-88
2021/08/18 13:58:32;;;;;;;;;;;18.50;99.90;;;;;;5014423;28;20278;-88
2021/08/18 14:00:58;;;;;;;;;;;18.50;99.90;;;;;;5014688;28;19909;-88
2021/08/18 14:03:23;;;;;;;;;;;18.40;99.90;;;;;;5014109;28;20024;-88
2021/08/18 14:05:49;;;;;;;;;;;18.50;99.90;;;;;;5015655;28;19917;-88
2021/08/18 14:08:15;;;;;;;;;;;18.40;99.90;;;;;;5014483;28;19917;-88
2021/08/18 14:10:41;;;;;;;;;;;18.40;99.90;;;;;;5014423;28;19920;-88
2021/08/18 14:13:07;;;;;;;;;;;18.40;99.90;;;;;;5014328;28;19909;-88